Time;durP1;ratioP1;P1;durP2;ratioP2;P2;SDS_P1;SDS_P2;PMS_P1;PMS_P2;Temp;Humidity;BMP_temperature;BMP_pressure;BME280_temperature;BME280_humidity;BME280_pressure;Samples;Min_cycle;Max_cycle;Signal;HPM_P1;HPM_P2
2022/06/22 00:00:39;;;;;;;3.75;2.05;;;13.10;99.90;;;;;;4953099;28;20419;-80
2022/06/22 00:03:10;;;;;;;4.85;2.03;;;13.10;99.90;;;;;;4955337;28;20478;-80
2022/06/22 00:05:49;;;;;;;5.18;1.90;;;13.10;99.90;;;;;;4951956;28;20773;-79
2022/06/22 00:08:22;;;;;;;5.88;2.13;;;12.80;99.90;;;;;;4946942;28;20429;-80
2022/06/22 00:10:54;;;;;;;5.15;2.00;;;12.90;99.90;;;;;;4955121;28;20444;-80
2022/06/22 00:13:27;;;;;;;3.70;1.77;;;12.80;99.90;;;;;;4947299;28;20414;-80
2022/06/22 00:16:01;;;;;;;4.80;2.00;;;12.80;99.90;;;;;;4961178;28;20390;-81
2022/06/22 00:19:02;;;;;;;4.55;2.08;;;12.80;99.90;;;;;;4956680;28;20423;-79
2022/06/22 00:21:39;;;;;;;4.32;1.98;;;12.90;99.90;;;;;;4951824;28;20440;-80
2022/06/22 00:24:24;;;;;;;5.97;2.33;;;12.90;99.90;;;;;;4947486;28;20752;-81
2022/06/22 00:26:56;;;;;;;4.53;2.20;;;12.90;99.90;;;;;;4943345;28;20425;-80
2022/06/22 00:29:33;;;;;;;5.60;2.15;;;12.70;99.90;;;;;;4936476;28;20409;-82
2022/06/22 00:32:22;;;;;;;4.93;2.10;;;12.80;99.90;;;;;;4949638;28;20449;-80
2022/06/22 00:34:51;;;;;;;5.80;2.25;;;12.70;99.90;;;;;;4942446;28;20413;-80
2022/06/22 00:37:25;;;;;;;3.92;1.83;;;12.60;99.90;;;;;;4949818;28;20433;-81
2022/06/22 00:39:58;;;;;;;5.10;1.80;;;12.50;99.90;;;;;;4947114;28;20416;-80
2022/06/22 00:42:40;;;;;;;4.32;2.13;;;12.50;99.90;;;;;;4945431;28;20398;-81
2022/06/22 00:45:12;;;;;;;4.07;1.90;;;12.50;99.90;;;;;;4962250;28;20395;-80
2022/06/22 00:47:47;;;;;;;3.58;2.20;;;12.60;99.90;;;;;;4946617;28;20630;-81
2022/06/22 00:50:44;;;;;;;4.82;2.17;;;12.40;99.90;;;;;;4953653;28;20531;-80
2022/06/22 00:53:33;;;;;;;7.05;2.05;;;12.30;99.90;;;;;;4950675;28;20495;-80
2022/06/22 00:56:29;;;;;;;3.80;2.00;;;12.30;99.90;;;;;;4952395;28;20419;-81
2022/06/22 00:59:13;;;;;;;2.80;1.80;;;12.40;99.90;;;;;;4954869;28;20417;-80
2022/06/22 01:01:46;;;;;;;4.35;1.85;;;12.30;99.90;;;;;;4950020;28;20402;-80
2022/06/22 01:04:27;;;;;;;4.32;2.08;;;12.40;99.90;;;;;;4950721;28;20448;-79
2022/06/22 01:07:08;;;;;;;4.00;1.83;;;12.40;99.90;;;;;;4959725;28;20472;-80
2022/06/22 01:09:46;;;;;;;5.72;1.80;;;12.40;99.90;;;;;;4945323;28;20411;-80
2022/06/22 01:12:25;;;;;;;4.20;2.10;;;12.20;99.90;;;;;;4970417;28;20391;-80
2022/06/22 01:15:13;;;;;;;3.00;1.90;;;12.10;99.90;;;;;;4953289;28;20418;-80
2022/06/22 01:18:03;;;;;;;3.70;1.97;;;12.10;99.90;;;;;;4963005;28;20424;-80
2022/06/22 01:20:53;;;;;;;5.45;2.00;;;12.10;99.90;;;;;;4940195;28;20407;-80
2022/06/22 01:23:20;;;;;;;3.70;2.30;;;12.00;99.90;;;;;;4952071;28;20434;-80
2022/06/22 01:25:55;;;;;;;6.47;2.20;;;12.00;99.90;;;;;;4950954;28;20908;-80
2022/06/22 01:28:25;;;;;;;4.78;2.20;;;11.90;99.90;;;;;;4959574;28;20495;-80
2022/06/22 01:31:03;;;;;;;4.22;1.90;;;12.00;99.90;;;;;;4939758;28;20414;-80
2022/06/22 01:33:41;;;;;;;3.92;2.20;;;12.00;99.90;;;;;;4951801;28;20404;-81
2022/06/22 01:36:26;;;;;;;3.53;2.10;;;12.00;99.90;;;;;;4952955;28;20413;-80
2022/06/22 01:38:55;;;;;;;4.68;2.28;;;12.00;99.90;;;;;;4954483;28;20405;-81
2022/06/22 01:41:58;;;;;;;4.85;1.90;;;12.00;99.90;;;;;;4960876;28;20428;-80
2022/06/22 01:44:46;;;;;;;5.05;2.13;;;12.00;99.90;;;;;;4960251;28;20408;-80
2022/06/22 01:47:30;;;;;;;4.60;2.17;;;12.00;99.90;;;;;;4963503;28;20432;-80
2022/06/22 01:50:19;;;;;;;7.70;2.60;;;11.90;99.90;;;;;;4951816;28;20432;-80
2022/06/22 01:53:02;;;;;;;5.55;2.22;;;12.00;99.90;;;;;;4953480;28;20387;-79
2022/06/22 01:55:40;;;;;;;6.35;2.13;;;12.00;99.90;;;;;;4953281;28;20416;-80
2022/06/22 01:58:20;;;;;;;4.65;2.15;;;12.00;99.90;;;;;;4927124;29;20400;-81
2022/06/22 02:01:00;;;;;;;4.40;2.10;;;11.90;99.90;;;;;;4957088;28;20416;-81
2022/06/22 02:03:37;;;;;;;5.65;2.00;;;11.80;99.90;;;;;;4945387;28;20427;-80
2022/06/22 02:09:12;;;;;;;4.82;2.45;;;11.80;99.90;;;;;;4955986;28;20772;-80
2022/06/22 02:11:47;;;;;;;4.88;2.25;;;11.80;99.90;;;;;;4956768;28;20412;-80
2022/06/22 02:14:25;;;;;;;4.50;2.25;;;11.70;99.90;;;;;;4942101;28;20414;-80
2022/06/22 02:16:59;;;;;;;6.63;2.30;;;11.70;99.90;;;;;;4957341;28;20410;-81
2022/06/22 02:19:30;;;;;;;5.35;2.30;;;11.70;99.90;;;;;;4953850;28;20436;-80
2022/06/22 02:21:58;;;;;;;3.17;2.00;;;11.70;99.90;;;;;;4954942;28;20418;-79
2022/06/22 02:24:39;;;;;;;4.65;1.95;;;11.70;99.90;;;;;;4946120;28;20440;-81
2022/06/22 02:27:22;;;;;;;5.07;2.20;;;11.70;99.90;;;;;;4957914;28;20445;-81
2022/06/22 02:29:56;;;;;;;3.55;2.20;;;11.70;99.90;;;;;;4963790;28;20468;-80
2022/06/22 02:32:42;;;;;;;3.50;2.00;;;11.70;99.90;;;;;;4958941;28;20423;-80
2022/06/22 02:35:12;;;;;;;4.88;1.98;;;11.70;99.90;;;;;;4956149;28;21005;-80
2022/06/22 02:37:44;;;;;;;4.32;2.22;;;11.70;99.90;;;;;;4959778;28;20419;-80
2022/06/22 02:40:17;;;;;;;4.70;2.10;;;11.70;99.90;;;;;;4959899;28;20488;-81
2022/06/22 02:45:31;;;;;;;5.55;2.17;;;11.70;99.90;;;;;;4961345;28;20404;-80
2022/06/22 02:48:21;;;;;;;4.90;2.20;;;11.60;99.90;;;;;;4960900;28;20909;-80
2022/06/22 02:51:23;;;;;;;4.28;2.08;;;11.60;99.90;;;;;;4955519;28;20416;-79
2022/06/22 02:53:52;;;;;;;4.78;2.20;;;11.60;99.90;;;;;;4969712;28;20510;-80
2022/06/22 02:56:41;;;;;;;4.13;2.15;;;11.60;99.90;;;;;;4954432;28;20390;-81
2022/06/22 02:59:10;;;;;;;3.72;1.88;;;11.60;99.90;;;;;;4948829;28;20436;-80
2022/06/22 03:01:39;;;;;;;4.65;1.95;;;11.50;99.90;;;;;;4956346;28;20937;-80
2022/06/22 03:04:14;;;;;;;4.38;2.00;;;11.60;99.90;;;;;;4961203;28;20415;-80
2022/06/22 03:06:49;;;;;;;4.60;1.98;;;11.70;99.90;;;;;;4953695;28;20410;-79
2022/06/22 03:09:18;;;;;;;6.32;1.83;;;11.60;99.90;;;;;;4961349;28;20414;-80
2022/06/22 03:11:50;;;;;;;7.93;2.10;;;11.60;99.90;;;;;;4949210;28;20908;-80
2022/06/22 03:14:27;;;;;;;4.65;2.00;;;11.60;99.90;;;;;;4948056;28;20931;-80
2022/06/22 03:17:01;;;;;;;4.93;2.15;;;11.60;99.90;;;;;;4953645;28;20448;-80
2022/06/22 03:20:03;;;;;;;4.78;2.03;;;11.60;99.90;;;;;;4958917;28;20849;-80
2022/06/22 03:22:35;;;;;;;5.93;2.20;;;11.50;99.90;;;;;;4957213;28;20411;-79
2022/06/22 03:25:24;;;;;;;4.63;2.23;;;11.50;99.90;;;;;;4954182;28;20402;-80
2022/06/22 03:28:04;;;;;;;8.00;2.05;;;11.40;99.90;;;;;;4939659;29;20460;-79
2022/06/22 03:30:52;;;;;;;5.07;2.30;;;11.40;99.90;;;;;;4949339;28;20816;-80
2022/06/22 03:33:36;;;;;;;3.72;1.92;;;11.50;99.90;;;;;;4951926;28;20406;-80
2022/06/22 03:36:17;;;;;;;5.13;2.15;;;11.40;99.90;;;;;;4960331;28;20765;-81
2022/06/22 03:38:50;;;;;;;4.38;2.45;;;11.40;99.90;;;;;;4957686;28;20499;-81
2022/06/22 03:41:23;;;;;;;5.57;2.00;;;11.50;99.90;;;;;;4964311;28;20950;-80
2022/06/22 03:44:19;;;;;;;7.25;2.20;;;11.50;99.90;;;;;;4957461;28;20406;-80
2022/06/22 03:46:49;;;;;;;4.97;2.03;;;11.50;99.90;;;;;;4955157;28;20447;-81
2022/06/22 03:49:50;;;;;;;4.75;2.33;;;11.60;99.90;;;;;;4952812;28;20414;-81
2022/06/22 03:52:32;;;;;;;4.15;2.30;;;11.50;99.90;;;;;;4955272;28;20902;-81
2022/06/22 03:55:14;;;;;;;2.80;2.10;;;11.60;99.90;;;;;;4972034;28;20404;-80
2022/06/22 03:57:45;;;;;;;4.18;2.03;;;11.60;99.90;;;;;;4948847;28;20497;-80
2022/06/22 04:00:14;;;;;;;3.53;2.30;;;11.60;99.90;;;;;;4957988;28;20477;-80
2022/06/22 04:02:42;;;;;;;4.50;2.58;;;11.60;99.90;;;;;;4948885;28;20777;-80
2022/06/22 04:05:20;;;;;;;5.95;2.33;;;11.60;99.90;;;;;;4933015;28;20426;-81
2022/06/22 04:07:50;;;;;;;3.63;2.30;;;11.70;99.90;;;;;;4962264;28;20950;-80
2022/06/22 04:10:42;;;;;;;4.10;2.33;;;11.70;99.90;;;;;;4958651;28;20502;-81
2022/06/22 04:13:24;;;;;;;5.53;2.30;;;11.70;99.90;;;;;;4955211;28;20408;-80
2022/06/22 04:15:58;;;;;;;4.20;2.40;;;11.80;99.90;;;;;;4966341;28;20402;-80
2022/06/22 04:18:42;;;;;;;3.90;2.20;;;11.80;99.90;;;;;;4966107;28;20406;-83
2022/06/22 04:21:26;;;;;;;4.93;2.40;;;11.80;99.90;;;;;;4960613;28;20416;-79
2022/06/22 04:24:01;;;;;;;5.40;2.30;;;11.80;99.90;;;;;;4956780;28;20488;-81
2022/06/22 04:26:38;;;;;;;3.95;2.17;;;11.80;99.90;;;;;;4958615;28;20412;-82
2022/06/22 04:29:38;;;;;;;4.90;2.47;;;11.90;99.90;;;;;;4959290;28;20410;-81
2022/06/22 04:32:33;;;;;;;4.80;2.60;;;11.90;99.90;;;;;;4971108;28;20406;-80
2022/06/22 04:35:38;;;;;;;6.10;2.50;;;11.90;99.90;;;;;;4955628;28;20406;-81
2022/06/22 04:38:18;;;;;;;5.18;2.53;;;11.90;99.90;;;;;;4964774;28;20402;-82
2022/06/22 04:40:49;;;;;;;4.13;2.65;;;12.00;99.90;;;;;;4951532;28;20433;-79
2022/06/22 04:43:17;;;;;;;4.30;2.53;;;12.00;99.90;;;;;;4951785;28;20903;-80
2022/06/22 04:45:46;;;;;;;5.13;2.78;;;12.10;99.90;;;;;;4968176;28;20901;-80
2022/06/22 04:48:53;;;;;;;4.13;2.55;;;12.00;99.90;;;;;;4964607;28;20442;-79
2022/06/22 04:51:29;;;;;;;4.60;2.53;;;12.10;99.90;;;;;;4960190;28;20446;-80
2022/06/22 04:54:08;;;;;;;4.07;2.50;;;12.20;99.90;;;;;;4958601;28;20454;-80
2022/06/22 04:56:38;;;;;;;3.53;2.38;;;12.30;99.90;;;;;;4972475;28;20408;-81
2022/06/22 04:59:10;;;;;;;4.63;2.63;;;12.30;99.90;;;;;;4957797;28;20405;-80
2022/06/22 05:02:02;;;;;;;4.25;2.50;;;12.30;99.90;;;;;;4955431;28;21327;-80
2022/06/22 05:04:35;;;;;;;3.73;2.43;;;12.40;99.90;;;;;;4953722;28;20408;-79
2022/06/22 05:07:27;;;;;;;4.07;2.65;;;12.40;99.90;;;;;;4958585;28;20408;-80
2022/06/22 05:10:23;;;;;;;4.20;2.90;;;12.40;99.90;;;;;;4964332;28;20535;-80
2022/06/22 05:12:58;;;;;;;4.70;2.50;;;12.50;99.90;;;;;;4958516;28;20895;-80
2022/06/22 05:15:30;;;;;;;5.40;2.72;;;12.50;99.90;;;;;;4959746;28;20407;-80
2022/06/22 05:18:01;;;;;;;4.90;2.57;;;12.60;99.90;;;;;;4959770;28;20909;-80
2022/06/22 05:20:57;;;;;;;5.75;2.80;;;12.60;99.90;;;;;;4948163;28;20445;-79
2022/06/22 05:23:29;;;;;;;5.03;2.60;;;12.70;99.90;;;;;;4957259;28;20434;-80
2022/06/22 05:26:03;;;;;;;6.30;3.00;;;12.70;99.90;;;;;;4949744;28;20402;-79
2022/06/22 05:28:54;;;;;;;6.18;3.00;;;12.70;99.90;;;;;;4956161;28;20397;-80
2022/06/22 05:31:28;;;;;;;4.22;2.70;;;12.80;99.90;;;;;;4952786;28;20415;-80
2022/06/22 05:34:00;;;;;;;6.83;3.40;;;12.90;99.90;;;;;;4954867;28;20414;-80
2022/06/22 05:36:31;;;;;;;4.43;3.08;;;12.90;99.90;;;;;;4947749;28;20804;-80
2022/06/22 05:39:01;;;;;;;5.85;2.90;;;13.00;99.90;;;;;;4948935;28;20421;-80
2022/06/22 05:41:35;;;;;;;4.43;2.78;;;13.00;99.90;;;;;;4949744;28;20419;-80
2022/06/22 05:44:11;;;;;;;5.57;3.00;;;13.00;99.90;;;;;;4957332;28;20411;-80
2022/06/22 05:46:51;;;;;;;4.93;3.03;;;13.10;99.90;;;;;;4941151;28;20512;-80
2022/06/22 05:49:21;;;;;;;6.82;3.10;;;13.20;99.90;;;;;;4939216;28;20416;-80
2022/06/22 05:52:09;;;;;;;8.13;3.00;;;13.30;99.90;;;;;;4951567;28;20417;-80
2022/06/22 05:54:52;;;;;;;4.70;3.00;;;13.30;99.90;;;;;;4949512;28;20400;-80
2022/06/22 05:57:36;;;;;;;5.82;3.45;;;13.40;99.90;;;;;;4948618;28;20406;-80
2022/06/22 06:00:17;;;;;;;4.95;2.90;;;13.50;99.90;;;;;;4953226;28;20474;-80
2022/06/22 06:03:04;;;;;;;5.07;3.47;;;13.50;99.90;;;;;;4939827;28;20394;-80
2022/06/22 06:05:40;;;;;;;6.05;3.40;;;13.70;99.90;;;;;;4945884;28;20391;-79
2022/06/22 06:08:36;;;;;;;6.32;3.25;;;13.70;99.90;;;;;;4955393;28;20414;-80
2022/06/22 06:11:05;;;;;;;6.63;3.25;;;13.70;99.90;;;;;;4951487;28;20405;-79
2022/06/22 06:13:39;;;;;;;5.63;3.35;;;13.80;99.90;;;;;;4946951;28;20391;-80
2022/06/22 06:16:12;;;;;;;5.90;3.50;;;13.80;99.90;;;;;;4960840;28;20773;-80
2022/06/22 06:18:43;;;;;;;5.78;3.08;;;13.90;99.90;;;;;;4950568;28;20410;-80
2022/06/22 06:21:21;;;;;;;6.72;3.70;;;13.90;99.90;;;;;;4940017;28;20410;-81
2022/06/22 06:24:03;;;;;;;6.00;3.40;;;14.10;99.90;;;;;;4944244;28;20406;-79
2022/06/22 06:29:35;;;;;;;5.45;3.10;;;14.30;99.90;;;;;;4943688;28;20408;-79
2022/06/22 06:32:37;;;;;;;5.47;3.28;;;14.30;99.90;;;;;;4945121;28;20769;-79
2022/06/22 06:35:25;;;;;;;5.63;3.55;;;14.20;99.90;;;;;;4944925;28;20815;-79
2022/06/22 06:38:15;;;;;;;6.43;3.53;;;14.30;99.90;;;;;;4938132;28;20876;-80
2022/06/22 06:41:09;;;;;;;4.93;3.45;;;14.30;99.90;;;;;;4947010;28;20419;-80
2022/06/22 06:43:39;;;;;;;5.50;3.65;;;14.40;99.90;;;;;;4950114;28;20405;-80
2022/06/22 06:46:51;;;;;;;6.70;3.90;;;14.50;99.90;;;;;;4949927;28;20417;-80
2022/06/22 06:50:02;;;;;;;6.38;3.80;;;14.60;99.90;;;;;;4933636;28;20476;-80
2022/06/22 06:52:51;;;;;;;5.65;3.50;;;14.60;99.90;;;;;;4948477;28;20882;-79
2022/06/22 06:55:29;;;;;;;6.32;3.58;;;14.70;99.90;;;;;;4947034;28;20414;-79
2022/06/22 06:58:11;;;;;;;7.38;3.90;;;14.70;99.90;;;;;;4941327;28;20404;-80
2022/06/22 07:00:40;;;;;;;7.45;3.63;;;14.80;99.90;;;;;;4960814;28;20446;-79
2022/06/22 07:03:21;;;;;;;9.05;4.18;;;14.80;99.90;;;;;;4937816;28;20445;-78
2022/06/22 07:05:50;;;;;;;5.90;3.30;;;14.70;99.90;;;;;;4944032;28;20452;-78
2022/06/22 07:08:28;;;;;;;8.55;4.00;;;14.80;99.90;;;;;;4943515;28;20397;-79
2022/06/22 07:11:31;;;;;;;5.47;3.63;;;14.90;99.90;;;;;;4944659;28;20413;-79
2022/06/22 07:14:22;;;;;;;4.93;3.20;;;15.00;99.90;;;;;;4947527;28;20438;-79
2022/06/22 07:16:52;;;;;;;6.47;3.67;;;15.00;99.90;;;;;;4954861;28;20415;-79
2022/06/22 07:19:35;;;;;;;7.38;3.90;;;15.20;99.90;;;;;;4950453;28;20429;-79
2022/06/22 07:22:25;;;;;;;5.40;3.70;;;15.20;99.90;;;;;;4941858;28;20415;-79
2022/06/22 07:25:04;;;;;;;5.90;3.30;;;15.20;99.90;;;;;;4949418;28;20489;-78
2022/06/22 07:27:35;;;;;;;5.82;3.55;;;15.20;99.90;;;;;;4962559;28;20766;-79
2022/06/22 07:30:13;;;;;;;5.57;3.47;;;15.20;99.90;;;;;;4939686;28;20418;-80
2022/06/22 07:33:03;;;;;;;5.60;3.33;;;15.30;99.90;;;;;;4945877;28;20425;-79
2022/06/22 07:35:44;;;;;;;5.15;2.95;;;15.30;99.90;;;;;;4942308;28;20382;-79
2022/06/22 07:38:39;;;;;;;5.97;3.60;;;15.40;99.90;;;;;;4953572;28;20391;-80
2022/06/22 07:41:20;;;;;;;6.13;3.83;;;15.50;99.90;;;;;;4942226;28;20394;-79
2022/06/22 07:44:00;;;;;;;5.70;3.30;;;15.60;99.90;;;;;;4940747;28;20398;-79
2022/06/22 07:46:49;;;;;;;5.32;3.40;;;15.60;99.90;;;;;;4939403;28;20414;-80
2022/06/22 07:49:17;;;;;;;6.68;3.53;;;15.60;99.90;;;;;;4939798;28;20433;-80
2022/06/22 07:51:51;;;;;;;5.03;3.42;;;15.70;99.90;;;;;;4941431;28;20410;-79
2022/06/22 07:54:39;;;;;;;6.07;3.75;;;15.60;99.90;;;;;;4936875;28;20414;-79
2022/06/22 07:57:22;;;;;;;6.60;3.72;;;15.70;99.90;;;;;;4941834;28;20412;-80
2022/06/22 07:59:56;;;;;;;6.63;3.60;;;15.70;99.90;;;;;;4938998;28;20387;-79
2022/06/22 08:02:36;;;;;;;5.23;3.60;;;15.80;99.90;;;;;;4957792;28;20396;-78
2022/06/22 08:05:11;;;;;;;4.65;3.33;;;16.10;99.90;;;;;;4962428;28;20416;-79
2022/06/22 08:07:53;;;;;;;5.95;3.38;;;16.10;99.90;;;;;;4949486;28;20412;-80
2022/06/22 08:10:28;;;;;;;6.28;3.67;;;16.10;99.90;;;;;;4955162;28;20412;-78
2022/06/22 08:13:09;;;;;;;5.82;3.15;;;16.20;99.90;;;;;;4956209;28;20417;-80
2022/06/22 08:16:15;;;;;;;6.68;3.35;;;16.20;99.90;;;;;;4957595;28;20930;-79
2022/06/22 08:18:44;;;;;;;5.72;3.20;;;16.20;99.90;;;;;;4966436;28;20472;-78
2022/06/22 08:21:18;;;;;;;4.72;3.10;;;16.20;99.90;;;;;;4952415;28;20509;-80
2022/06/22 08:23:47;;;;;;;5.25;3.15;;;16.30;99.90;;;;;;4951584;28;20488;-80
2022/06/22 08:26:30;;;;;;;6.30;3.17;;;16.30;99.90;;;;;;4950911;28;20410;-80
2022/06/22 08:29:00;;;;;;;5.33;3.60;;;16.50;99.90;;;;;;4939043;28;20410;-80
2022/06/22 08:31:38;;;;;;;5.37;3.20;;;16.40;99.90;;;;;;4947697;28;20433;-79
2022/06/22 08:34:32;;;;;;;6.65;3.30;;;16.40;99.90;;;;;;4956920;28;20411;-80
2022/06/22 08:37:11;;;;;;;4.70;3.10;;;16.50;99.90;;;;;;4949219;28;20505;-80
2022/06/22 08:39:47;;;;;;;5.65;2.92;;;16.50;99.90;;;;;;4956767;28;20901;-79
2022/06/22 08:42:24;;;;;;;6.32;3.15;;;16.60;99.90;;;;;;4955611;28;20483;-80
2022/06/22 08:45:33;;;;;;;4.63;2.85;;;16.60;99.90;;;;;;4948097;28;20412;-80
2022/06/22 08:48:03;;;;;;;5.45;3.55;;;16.60;99.90;;;;;;4957777;28;20464;-79
2022/06/22 08:51:00;;;;;;;5.97;3.15;;;16.80;99.90;;;;;;4949795;28;20416;-80
2022/06/22 08:54:08;;;;;;;6.45;3.58;;;16.80;99.90;;;;;;4958301;28;20976;-82
2022/06/22 08:56:55;;;;;;;4.85;3.13;;;17.00;99.90;;;;;;4953681;28;20408;-80
2022/06/22 08:59:43;;;;;;;7.35;3.42;;;17.00;99.90;;;;;;4953129;28;20983;-80
2022/06/22 09:02:57;;;;;;;5.82;2.80;;;17.10;99.90;;;;;;4946990;28;20774;-81
2022/06/22 09:05:51;;;;;;;4.95;3.10;;;17.10;99.90;;;;;;4933229;28;20468;-79
2022/06/22 09:08:34;;;;;;;6.30;3.25;;;17.10;99.90;;;;;;4954702;28;20410;-81
2022/06/22 09:11:29;;;;;;;4.10;3.22;;;17.10;99.90;;;;;;4946167;28;20421;-81
2022/06/22 09:14:08;;;;;;;4.80;2.95;;;17.20;99.90;;;;;;4937417;28;20410;-81
2022/06/22 09:16:57;;;;;;;11.90;3.30;;;17.20;99.90;;;;;;4953636;28;20446;-80
2022/06/22 09:20:07;;;;;;;5.38;3.10;;;17.30;99.90;;;;;;4950188;28;20404;-80
2022/06/22 09:22:57;;;;;;;5.22;3.05;;;17.30;99.90;;;;;;4934664;28;20429;-80
2022/06/22 09:25:37;;;;;;;5.17;3.33;;;17.50;99.90;;;;;;4947885;28;20408;-78
2022/06/22 09:28:23;;;;;;;4.70;3.13;;;17.50;99.90;;;;;;4956600;28;20454;-80
2022/06/22 09:31:05;;;;;;;6.80;3.33;;;17.60;99.90;;;;;;4965357;28;20904;-80
2022/06/22 09:33:35;;;;;;;7.43;3.20;;;17.60;99.90;;;;;;4955562;28;20806;-80
2022/06/22 09:36:13;;;;;;;6.95;3.22;;;17.60;99.90;;;;;;4955224;28;20807;-80
2022/06/22 09:39:01;;;;;;;7.22;3.10;;;17.60;99.90;;;;;;4955651;28;20399;-79
2022/06/22 09:41:55;;;;;;;5.85;3.15;;;17.60;99.90;;;;;;4951791;28;20490;-79
2022/06/22 09:44:33;;;;;;;5.25;2.88;;;17.70;99.90;;;;;;4950709;28;20418;-79
2022/06/22 09:47:24;;;;;;;4.38;2.88;;;17.80;99.90;;;;;;4937283;28;20417;-80
2022/06/22 09:50:10;;;;;;;4.55;2.80;;;17.80;99.90;;;;;;4948197;28;20464;-79
2022/06/22 09:53:02;;;;;;;4.65;2.88;;;17.90;99.90;;;;;;4943686;29;20956;-81
2022/06/22 09:59:03;;;;;;;5.73;3.30;;;18.10;99.90;;;;;;4950046;28;20412;-81
2022/06/22 10:01:51;;;;;;;6.20;3.30;;;18.00;99.90;;;;;;4961443;28;20433;-80
2022/06/22 10:04:56;;;;;;;5.47;3.20;;;18.30;99.90;;;;;;4956255;28;20410;-81
2022/06/22 10:07:35;;;;;;;5.45;3.28;;;18.50;99.90;;;;;;4958195;28;20411;-80
2022/06/22 10:10:25;;;;;;;4.50;2.90;;;18.50;99.90;;;;;;4959425;28;20407;-81
2022/06/22 10:13:27;;;;;;;9.20;4.85;;;18.50;99.90;;;;;;4958068;28;20422;-80
2022/06/22 10:16:15;;;;;;;5.78;3.03;;;18.70;99.90;;;;;;4978139;28;20407;-80
2022/06/22 10:19:08;;;;;;;5.00;3.08;;;18.70;99.90;;;;;;4935173;28;20436;-80
2022/06/22 10:22:16;;;;;;;5.63;2.83;;;18.60;99.90;;;;;;4953493;28;20418;-79
2022/06/22 10:25:10;;;;;;;5.20;3.15;;;18.60;99.90;;;;;;4949672;28;20835;-81
2022/06/22 10:28:00;;;;;;;5.95;3.35;;;18.70;99.90;;;;;;4943872;28;20835;-80
2022/06/22 10:30:38;;;;;;;6.85;3.67;;;18.80;99.90;;;;;;4956716;28;20405;-80
2022/06/22 10:33:20;;;;;;;5.77;3.30;;;18.70;99.90;;;;;;4946862;28;20413;-80
2022/06/22 10:36:17;;;;;;;6.47;3.28;;;18.80;99.90;;;;;;4956078;28;20438;-80
2022/06/22 10:39:12;;;;;;;4.25;3.08;;;18.80;99.90;;;;;;4952621;28;20509;-80
2022/06/22 10:45:40;;;;;;;6.50;3.20;;;19.00;99.90;;;;;;4943481;28;20906;-80
2022/06/22 10:49:10;;;;;;;4.18;2.90;;;18.70;99.90;;;;;;4956988;28;20402;-80
2022/06/22 10:51:54;;;;;;;5.30;3.00;;;18.50;99.90;;;;;;5023020;28;20499;-80
2022/06/22 10:54:51;;;;;;;5.85;3.22;;;18.50;99.90;;;;;;5010113;28;20431;-80
2022/06/22 10:57:38;;;;;;;5.07;3.03;;;18.40;99.90;;;;;;4959047;28;20460;-81
2022/06/22 11:00:37;;;;;;;6.53;3.00;;;18.50;99.90;;;;;;4951268;28;20395;-82
2022/06/22 11:03:26;;;;;;;5.90;3.25;;;18.60;99.90;;;;;;4958416;28;20400;-81
2022/06/22 11:06:28;;;;;;;7.22;3.30;;;19.00;99.90;;;;;;4953426;28;20404;-82
2022/06/22 11:09:18;;;;;;;6.22;2.95;;;19.10;99.90;;;;;;4951723;28;20951;-81
2022/06/22 11:12:21;;;;;;;6.13;3.00;;;19.10;99.90;;;;;;4984385;28;20443;-83
2022/06/22 11:15:04;;;;;;;8.52;3.22;;;19.00;99.90;;;;;;4950982;28;20424;-82
2022/06/22 11:18:16;;;;;;;7.37;3.00;;;19.00;99.90;;;;;;4951641;28;20412;-83
2022/06/22 11:21:03;;;;;;;5.90;2.60;;;19.30;99.90;;;;;;4955857;28;20913;-83
2022/06/22 11:23:54;;;;;;;6.35;2.67;;;19.20;99.90;;;;;;4952366;28;20416;-81
2022/06/22 11:33:06;;;;;;;4.05;2.70;;;19.40;99.90;;;;;;4954509;28;20409;-83
2022/06/22 11:35:55;;;;;;;6.40;2.78;;;19.50;99.90;;;;;;4991932;28;20403;-83
2022/06/22 11:38:54;;;;;;;4.63;2.75;;;19.60;99.90;;;;;;4956970;28;20779;-82
2022/06/22 11:41:47;;;;;;;5.45;3.13;;;19.60;99.90;;;;;;4937506;28;20896;-83
2022/06/22 11:45:49;;;;;;;5.17;2.80;;;19.70;99.90;;;;;;4954726;28;20408;-82
2022/06/22 11:47:47;;;;;;;3.97;2.85;;;19.80;99.90;;;;;;4955489;28;20416;-83
2022/06/22 11:50:30;;;;;;;6.35;3.35;;;19.70;99.90;;;;;;4955075;28;20416;-81
2022/06/22 11:53:18;;;;;;;7.35;3.10;;;19.80;99.90;;;;;;4956388;28;20433;-82
2022/06/22 11:55:53;;;;;;;5.90;3.00;;;20.00;99.90;;;;;;4944152;28;20406;-82
2022/06/22 11:58:43;;;;;;;5.20;2.50;;;20.30;99.90;;;;;;4953516;28;20435;-81
2022/06/22 12:01:33;;;;;;;4.75;2.33;;;20.10;99.90;;;;;;4944427;28;20413;-82
2022/06/22 12:04:08;;;;;;;3.88;2.60;;;20.20;99.90;;;;;;4944433;28;20417;-81
2022/06/22 12:06:56;;;;;;;5.78;2.45;;;20.20;99.90;;;;;;4945540;28;20741;-80
2022/06/22 12:09:39;;;;;;;5.07;2.50;;;20.20;99.90;;;;;;4939040;28;20826;-82
2022/06/22 12:12:25;;;;;;;5.03;2.90;;;20.40;99.90;;;;;;4938182;28;20799;-80
2022/06/22 12:15:09;;;;;;;3.60;2.70;;;20.70;99.90;;;;;;4941217;28;20414;-79
2022/06/22 12:18:06;;;;;;;6.57;2.73;;;20.80;99.90;;;;;;4928862;28;20422;-81
2022/06/22 12:20:53;;;;;;;5.80;2.88;;;20.50;99.90;;;;;;4941575;28;20419;-82
2022/06/22 12:23:39;;;;;;;5.15;2.72;;;20.40;99.90;;;;;;4934898;28;20497;-81
2022/06/22 12:26:18;;;;;;;4.70;2.50;;;20.40;99.90;;;;;;4933393;28;20493;-81
2022/06/22 12:28:58;;;;;;;4.67;2.70;;;20.30;99.90;;;;;;4935204;28;20397;-82
2022/06/22 12:31:35;;;;;;;4.70;2.60;;;20.40;99.90;;;;;;4942007;28;20419;-82
2022/06/22 12:34:46;;;;;;;5.43;2.78;;;20.70;99.90;;;;;;4952632;28;20416;-81
2022/06/22 12:37:20;;;;;;;8.03;2.97;;;20.90;99.90;;;;;;4957838;28;20773;-81
2022/06/22 12:40:04;;;;;;;4.80;2.88;;;21.20;99.90;;;;;;4957988;28;20416;-83
2022/06/22 12:43:08;;;;;;;5.50;2.30;;;21.20;99.90;;;;;;4959100;28;20422;-83
2022/06/22 12:46:13;;;;;;;5.80;2.72;;;21.10;99.90;;;;;;4958284;28;20754;-83
2022/06/22 12:48:42;;;;;;;4.88;2.55;;;20.90;99.90;;;;;;4966285;28;20458;-83
2022/06/22 12:51:27;;;;;;;6.18;2.65;;;20.90;99.90;;;;;;4959922;28;20403;-82
2022/06/22 12:54:00;;;;;;;6.45;2.90;;;21.00;99.90;;;;;;4965813;28;20492;-82
2022/06/22 12:56:41;;;;;;;5.05;2.50;;;21.00;99.90;;;;;;4952530;28;20760;-82
2022/06/22 12:59:22;;;;;;;8.97;2.70;;;21.10;99.90;;;;;;4949249;28;20412;-82
2022/06/22 13:01:51;;;;;;;5.18;2.47;;;21.30;99.90;;;;;;4957295;28;20833;-83
2022/06/22 13:04:25;;;;;;;4.05;2.15;;;21.50;99.90;;;;;;4953367;28;20769;-80
2022/06/22 13:07:01;;;;;;;6.63;2.30;;;21.50;99.90;;;;;;4949053;28;20505;-83
2022/06/22 13:09:30;;;;;;;5.07;2.47;;;21.40;99.90;;;;;;4954646;28;20402;-83
2022/06/22 13:12:00;;;;;;;4.15;2.35;;;21.60;99.90;;;;;;4959718;28;20415;-84
2022/06/22 13:14:47;;;;;;;5.90;2.37;;;21.70;99.90;;;;;;4954244;28;20420;-83
2022/06/22 13:17:30;;;;;;;6.38;2.67;;;21.70;99.90;;;;;;4963464;28;20487;-83
2022/06/22 13:20:45;;;;;;;8.13;3.10;;;21.80;99.90;;;;;;4959881;28;20864;-84
2022/06/22 13:23:43;;;;;;;5.10;2.40;;;21.90;99.90;;;;;;4957021;28;20425;-82
2022/06/22 13:26:20;;;;;;;6.47;2.30;;;21.90;99.90;;;;;;4952334;28;20398;-81
2022/06/22 13:29:09;;;;;;;4.70;2.45;;;22.00;99.90;;;;;;4940119;28;20400;-83
2022/06/22 13:31:41;;;;;;;4.53;2.40;;;22.20;99.90;;;;;;4959555;28;20395;-83
2022/06/22 13:34:48;;;;;;;4.43;2.53;;;22.30;99.90;;;;;;4951342;28;20502;-82
2022/06/22 13:37:28;;;;;;;3.45;2.15;;;22.20;99.90;;;;;;4959464;28;20406;-83
2022/06/22 13:40:26;;;;;;;4.68;2.45;;;22.20;99.90;;;;;;4960942;28;20391;-83
2022/06/22 13:43:14;;;;;;;3.05;2.17;;;22.30;99.90;;;;;;4955610;28;20401;-84
2022/06/22 13:46:03;;;;;;;5.65;2.40;;;22.40;99.90;;;;;;4945788;28;20856;-83
2022/06/22 13:48:37;;;;;;;7.43;2.20;;;22.30;99.90;;;;;;4962938;28;20446;-82
2022/06/22 13:51:46;;;;;;;6.60;2.40;;;22.40;99.90;;;;;;4952410;28;20406;-82
2022/06/22 13:54:46;;;;;;;3.23;2.20;;;22.30;99.90;;;;;;4946818;28;20421;-84
2022/06/22 13:57:22;;;;;;;4.63;2.03;;;22.10;99.90;;;;;;4979303;28;20419;-82
2022/06/22 14:00:09;;;;;;;3.90;2.25;;;22.10;99.90;;;;;;4955148;28;20383;-80
2022/06/22 14:02:42;;;;;;;4.50;2.30;;;22.10;99.90;;;;;;4957142;28;20385;-82
2022/06/22 14:05:29;;;;;;;4.47;2.13;;;22.40;99.90;;;;;;4946486;28;20436;-80
2022/06/22 14:08:08;;;;;;;3.42;2.13;;;22.40;99.90;;;;;;4946994;28;20410;-82
2022/06/22 14:10:48;;;;;;;4.65;2.38;;;22.50;99.90;;;;;;4958821;28;20411;-83
2022/06/22 14:13:40;;;;;;;3.80;1.90;;;22.50;99.90;;;;;;4936381;29;20403;-83
2022/06/22 14:16:29;;;;;;;6.53;2.30;;;22.50;99.90;;;;;;4954838;28;20779;-83
2022/06/22 14:19:01;;;;;;;5.07;1.92;;;22.50;99.90;;;;;;4953546;28;20411;-83
2022/06/22 14:21:44;;;;;;;4.80;2.10;;;22.50;99.90;;;;;;4953771;28;20739;-83
2022/06/22 14:24:23;;;;;;;3.33;1.83;;;22.60;99.90;;;;;;4954058;28;20926;-83
2022/06/22 14:27:03;;;;;;;4.20;1.90;;;22.60;99.90;;;;;;4963962;28;20418;-82
2022/06/22 14:30:06;;;;;;;5.45;2.20;;;22.70;99.90;;;;;;4950788;28;20416;-82
2022/06/22 14:32:47;;;;;;;4.60;1.97;;;22.90;99.90;;;;;;4952722;28;20940;-84